Chollas Lake (167) Station Data

Red Flag Warning: No
Fire Weather Zone: 243
SDGE Region: Metro
Lat/Lon: 32.736/-117.067

Observations

Time Wind Speed/Gust Temp(F) RH Fuel Moist Fuel Temp(F) Dewpt(F) Tmax(F) Tmin(F) Accum Precip 10-min Precip SL Press(mb)
2/27 11:40pm 273 9 G 17 52° 98% - - 51° 56.1° 50.5° - - -
2/27 11:20pm 253 5 G 9 53° 98% - - 52° 56.1° 50.5° - - -
2/27 11:10pm 245 5 G 9 53° 98% - - 52° 56.1° 50.5° - - -
2/27 11:00pm 270 4 G 7 53° 97% - - 52° 56.1° 50.5° - - -
2/27 10:50pm 270 6 G 10 53° 97% - - 52° 56.1° 50.5° - - -
2/27 10:40pm 288 6 G 11 53° 97% - - 53° 56.1° 50.5° - - -
2/27 10:30pm 298 6 G 12 53° 97% - - 53° 56.1° 50.5° - - -
2/27 10:20pm 300 5 G 11 54° 97% - - 53° 56.1° 50.5° - - -
2/27 10:10pm 254 4 G 9 55° 97% - - 54° 56.1° 50.5° - - -
2/27 10:00pm 203 5 G 13 55° 96% - - 54° 56.1° 50.5° - - -
2/27 9:50pm 187 7 G 12 55° 95% - - 53° 56.1° 50.5° - - -
2/27 9:40pm 185 7 G 13 55° 94% - - 53° 56.1° 50.5° - - -
2/27 9:30pm 177 8 G 16 55° 93% - - 53° 56.1° 50.5° - - -
2/27 9:20pm 181 8 G 13 55° 94% - - 53° 56.1° 50.5° - - -
2/27 9:10pm 178 8 G 17 55° 95% - - 53° 56.1° 50.5° - - -
2/27 9:00pm 178 10 G 18 55° 96% - - 54° 56.1° 50.5° - - -
2/27 8:50pm 175 10 G 19 55° 96% - - 54° 56.1° 50.5° - - -
2/27 8:40pm 173 8 G 17 55° 96% - - 54° 56.1° 50.5° - - -
2/27 8:30pm 175 7 G 13 55° 96% - - 53° 56.1° 50.5° - - -
2/27 8:20pm 167 9 G 18 54° 97% - - 53° 56.1° 50.5° - - -
2/27 8:10pm 176 8 G 14 54° 97% - - 53° 56.1° 50.5° - - -
2/27 8:00pm 175 9 G 15 54° 98% - - 53° 56.1° 50.5° - - -
2/27 7:50pm 171 9 G 17 54° 98% - - 54° 56.1° 50.5° - - -
2/27 7:40pm 180 8 G 16 54° 98% - - 54° 56.1° 50.5° - - -
2/27 7:30pm 178 9 G 14 54° 98% - - 54° 56.1° 50.5° - - -
2/27 7:20pm 175 9 G 17 54° 98% - - 54° 56.1° 50.5° - - -
2/27 7:10pm 180 7 G 14 54° 98% - - 54° 56.1° 50.5° - - -
2/27 7:00pm 184 8 G 17 54° 98% - - 54° 56.1° 50.5° - - -
2/27 6:50pm 179 7 G 16 54° 98% - - 54° 56.1° 50.5° - - -
2/27 6:40pm 177 7 G 12 54° 98% - - 54° 56.1° 50.5° - - -
2/27 6:30pm 168 7 G 13 55° 98% - - 54° 56.1° 50.5° - - -
2/27 6:20pm 172 8 G 16 55° 98% - - 54° 56.1° 50.5° - - -
2/27 6:10pm 175 7 G 13 55° 98% - - 54° 56.1° 50.5° - - -
2/27 6:00pm 187 5 G 11 55° 98% - - 54° 56.1° 50.5° - - -
2/27 5:50pm 189 6 G 13 55° 97% - - 54° 56.1° 50.5° - - -
2/27 5:40pm 172 7 G 13 55° 97% - - 54° 56.1° 50.5° - - -
2/27 5:30pm 169 8 G 15 55° 97% - - 54° 56.1° 50.5° - - -
2/27 5:20pm 167 9 G 16 55° 97% - - 54° 56.1° 50.5° - - -
2/27 5:10pm 167 10 G 17 55° 97% - - 54° 56.1° 50.5° - - -
2/27 5:00pm 169 10 G 20 55° 97% - - 54° 56.1° 50.5° - - -
2/27 4:50pm 186 8 G 14 55° 97% - - 55° 56.1° 50.5° - - -
2/27 4:40pm 191 6 G 11 55° 97% - - 55° 56.1° 50.5° - - -
2/27 4:30pm 181 8 G 15 55° 97% - - 55° 56.1° 50.5° - - -
2/27 4:20pm 184 8 G 15 55° 97% - - 54° 56.1° 50.5° - - -
2/27 4:10pm 189 9 G 14 55° 97% - - 55° 56.1° 50.5° - - -
2/27 4:00pm 192 8 G 14 55° 97% - - 55° 56.1° 50.5° - - -
2/27 3:50pm 180 9 G 16 55° 97% - - 55° 56.1° 50.5° - - -
2/27 3:40pm 182 7 G 13 55° 97% - - 55° 56.1° 50.5° - - -
2/27 3:30pm 178 8 G 15 55° 97% - - 55° 56.1° 50.5° - - -
2/27 3:20pm 162 11 G 18 55° 97% - - 55° 56.1° 50.5° - - -
2/27 3:10pm 164 13 G 21 55° 98% - - 55° 56.1° 50.5° - - -
2/27 3:00pm 167 12 G 19 55° 98% - - 55° 56.1° 50.5° - - -
2/27 2:50pm 173 10 G 22 55° 98% - - 54° 56.1° 50.5° - - -
2/27 2:40pm 176 10 G 16 55° 98% - - 54° 56.1° 50.5° - - -
2/27 2:30pm 180 10 G 18 55° 98% - - 54° 56.1° 50.5° - - -
2/27 2:20pm 176 10 G 20 55° 97% - - 54° 56.1° 50.5° - - -
2/27 2:10pm 184 11 G 18 55° 97% - - 54° 56.1° 50.5° - - -
2/27 2:00pm 186 10 G 16 55° 97% - - 54° 56.1° 50.5° - - -
2/27 1:50pm 183 11 G 26 55° 97% - - 54° 56.1° 50.5° - - -
2/27 1:40pm 180 10 G 19 55° 96% - - 54° 56.1° 50.5° - - -
2/27 1:30pm 174 11 G 21 55° 96% - - 54° 56.1° 50.5° - - -
2/27 1:20pm 174 12 G 21 55° 97% - - 54° 56.1° 50.5° - - -
2/27 1:10pm 177 12 G 23 55° 97% - - 54° 56.1° 50.5° - - -
2/27 1:00pm 179 11 G 21 55° 97% - - 54° 56.1° 50.5° - - -
2/27 12:50pm 182 11 G 20 55° 97% - - 54° 56.1° 50.5° - - -
2/27 12:40pm 181 12 G 21 54° 97% - - 54° 56.1° 50.5° - - -
2/27 12:30pm 178 12 G 23 54° 97% - - 54° 56.1° 50.5° - - -
2/27 12:20pm 180 13 G 26 54° 98% - - 53° 56.1° 50.5° - - -
2/27 12:10pm 181 13 G 23 54° 98% - - 53° 56.1° 50.5° - - -
2/27 12:00pm 186 10 G 19 55° 98% - - 54° 56.1° 50.5° - - -
2/27 11:50am 177 13 G 29 55° 98% - - 54° 56.1° 50.5° - - -
2/27 11:40am 185 11 G 20 55° 98% - - 54° 56.1° 50.5° - - -
2/27 11:30am 180 10 G 18 55° 98% - - 54° 56.1° 50.5° - - -
2/27 11:20am 179 8 G 21 54° 98% - - 54° 56.1° 50.5° - - -
2/27 11:10am 196 5 G 12 54° 98% - - 54° 56.1° 50.5° - - -
2/27 11:00am 194 7 G 14 54° 98% - - 54° 56.1° 50.5° - - -
2/27 10:50am 181 10 G 19 54° 98% - - 54° 56.1° 50.5° - - -
2/27 10:40am 194 10 G 18 54° 98% - - 53° 56.1° 50.5° - - -
2/27 10:30am 187 10 G 20 55° 98% - - 54° 56.1° 50.5° - - -
2/27 10:20am 184 9 G 14 54° 98% - - 54° 56.1° 50.5° - - -
2/27 10:10am 190 11 G 18 54° 98% - - 53° 56.1° 50.5° - - -
2/27 10:00am 192 12 G 22 55° 98% - - 54° 56.1° 50.5° - - -
2/27 9:50am 191 10 G 21 55° 98% - - 55° 56.1° 50.5° - - -
2/27 9:40am 193 10 G 18 55° 98% - - 55° 56.1° 50.5° - - -
2/27 9:30am 190 9 G 16 55° 98% - - 55° 56.1° 50.5° - - -
2/27 9:20am 187 8 G 16 56° 98% - - 55° 56.1° 50.5° - - -
2/27 9:10am 185 8 G 14 55° 98% - - 55° 56° 50.5° - - -
2/27 9:00am 188 6 G 11 55° 98% - - 55° 56° 50.5° - - -
2/27 8:50am 183 9 G 17 55° 98% - - 55° 56° 50.5° - - -
2/27 8:40am 184 9 G 18 55° 98% - - 55° 56° 50.5° - - -
2/27 8:30am 179 9 G 17 55° 98% - - 55° 56° 50.5° - - -
2/27 8:20am 181 9 G 17 55° 98% - - 55° 56° 50.5° - - -
2/27 8:10am 187 9 G 17 55° 98% - - 55° 56° 50.5° - - -
2/27 8:00am 183 9 G 18 55° 98% - - 55° 56° 50.5° - - -
2/27 7:50am 178 10 G 20 55° 98% - - 55° 56° 50.5° - - -
2/27 7:40am 182 9 G 19 55° 98% - - 55° 56° 50.5° - - -
2/27 7:30am 178 9 G 17 55° 98% - - 55° 56° 50.5° - - -
2/27 7:20am 183 9 G 15 55° 98% - - 55° 56° 50.5° - - -
2/27 7:10am 180 8 G 19 55° 98% - - 55° 56° 50.5° - - -
2/27 7:00am 178 9 G 19 55° 98% - - 55° 56° 50.5° - - -
2/27 6:50am 178 9 G 18 55° 98% - - 55° 56° 50.5° - - -
2/27 6:40am 180 10 G 19 55° 98% - - 55° 56° 50.5° - - -
2/27 6:30am 182 9 G 17 55° 98% - - 55° 56° 50.5° - - -
2/27 6:20am 182 8 G 14 55° 98% - - 55° 56° 50.5° - - -
2/27 6:10am 182 9 G 16 55° 98% - - 55° 56° 50.5° - - -
2/27 6:00am 182 9 G 20 55° 98% - - 55° 56° 50.5° - - -
2/27 5:50am 181 9 G 17 55° 98% - - 55° 56° 50.5° - - -
2/27 5:40am 183 9 G 16 55° 98% - - 55° 55.8° 50.5° - - -
2/27 5:30am 178 11 G 19 55° 98% - - 55° 55.8° 50.5° - - -
2/27 5:20am 181 10 G 17 55° 98% - - 55° 55.8° 50.5° - - -
2/27 5:10am 180 10 G 21 55° 98% - - 55° 55.8° 50.5° - - -
2/27 5:00am 179 9 G 15 55° 98% - - 55° 55.8° 50.5° - - -
2/27 4:50am 181 7 G 13 55° 98% - - 54° 55.6° 50.5° - - -
2/27 4:40am 162 9 G 16 54° 98% - - 54° 54.6° 50.5° - - -
2/27 4:30am 157 10 G 16 54° 98% - - 53° 54.4° 50.5° - - -
2/27 4:20am 142 9 G 14 53° 98% - - 53° 53.9° 50.5° - - -
2/27 4:10am 138 9 G 14 53° 98% - - 53° 53.7° 50.5° - - -
2/27 4:00am 133 9 G 12 53° 98% - - 52° 53.2° 50.5° - - -
2/27 3:50am 113 6 G 13 52° 98% - - 52° 52.9° 50.5° - - -
2/27 3:40am 101 4 G 8 52° 98% - - 51° 52.6° 50.5° - - -
2/27 3:30am 93 3 G 7 52° 98% - - 51° 52.2° 50.5° - - -
2/27 3:20am 83 3 G 5 52° 98% - - 51° 52.1° 50.5° - - -
2/27 3:10am 79 3 G 6 52° 98% - - 51° 52.1° 50.5° - - -
2/27 3:00am 69 2 G 4 51° 98% - - 51° 51.9° 50.5° - - -
2/27 2:50am 73 2 G 4 51° 98% - - 51° 51.6° 50.5° - - -
2/27 2:40am 79 2 G 5 51° 97% - - 50° 51.6° 50.5° - - -
2/27 2:30am 83 3 G 6 51° 97% - - 50° 51.6° 50.5° - - -
2/27 2:20am 83 2 G 5 51° 97% - - 50° 51.6° 50.5° - - -
2/27 2:10am 83 3 G 6 51° 97% - - 50° 51.6° 50.5° - - -
2/27 2:00am 79 2 G 4 51° 97% - - 50° 51.6° 50.5° - - -
2/27 1:50am 74 2 G 7 51° 97% - - 50° 51.6° 50.5° - - -
2/27 1:40am 77 2 G 6 51° 97% - - 50° 51.6° 50.5° - - -
2/27 1:30am 75 2 G 5 51° 97% - - 50° 51.6° 50.5° - - -
2/27 1:20am 70 2 G 4 51° 97% - - 50° 51.6° 50.5° - - -
2/27 1:10am 65 2 G 4 51° 97% - - 50° 51.6° 50.5° - - -
2/27 1:00am 91 2 G 4 51° 97% - - 50° 51.6° 50.5° - - -
2/27 12:50am 96 2 G 4 51° 97% - - 50° 51.6° 50.5° - - -
2/27 12:40am 112 3 G 5 51° 97% - - 50° 51.6° 50.5° - - -
2/27 12:30am 119 4 G 7 51° 97% - - 50° 51.6° 50.5° - - -
2/27 12:20am 108 3 G 4 51° 96% - - 50° 51.6° 50.5° - - -
2/27 12:10am 115 3 G 5 51° 96% - - 50° 51.6° 50.5° - - -
2/27 12:00am 121 4 G 6 51° 97% - - 50° 58.6° 48.4° - - -
2/26 11:50pm 114 3 G 5 51° 97% - - 50° 58.6° 48.4° - - -
2/26 11:40pm 111 2 G 4 51° 97% - - 50° 58.6° 48.4° - - -
2/26 11:30pm 102 2 G 3 51° 96% - - 50° 58.6° 48.4° - - -
2/26 11:20pm 121 2 G 3 51° 96% - - 50° 58.6° 48.4° - - -
2/26 11:10pm 152 3 G 4 51° 95% - - 50° 58.6° 48.4° - - -
2/26 11:00pm 174 3 G 6 51° 94% - - 50° 58.6° 48.4° - - -
2/26 10:50pm 176 4 G 6 52° 94% - - 50° 58.6° 48.4° - - -
2/26 10:40pm 161 5 G 7 52° 94% - - 50° 58.6° 48.4° - - -
2/26 10:30pm 154 4 G 7 52° 93% - - 50° 58.6° 48.4° - - -
2/26 10:20pm 136 3 G 5 52° 94% - - 50° 58.6° 48.4° - - -
2/26 10:10pm 110 2 G 4 52° 94% - - 50° 58.6° 48.4° - - -
2/26 10:00pm 124 4 G 5 52° 94% - - 51° 58.6° 48.4° - - -
2/26 9:50pm 130 4 G 5 52° 94% - - 51° 58.6° 48.4° - - -
2/26 9:40pm 127 3 G 4 52° 94% - - 51° 58.6° 48.4° - - -
2/26 9:30pm 133 3 G 4 52° 94% - - 51° 58.6° 48.4° - - -
2/26 9:20pm 113 2 G 4 52° 94% - - 50° 58.6° 48.4° - - -
2/26 9:10pm 100 2 G 3 52° 94% - - 50° 58.6° 48.4° - - -
2/26 9:00pm 117 1 G 3 52° 93% - - 50° 58.6° 48.4° - - -
2/26 8:50pm 126 2 G 3 52° 92% - - 50° 58.6° 48.4° - - -
2/26 8:40pm 95 1 G 3 52° 90% - - 50° 58.6° 48.4° - - -
2/26 8:30pm 120 2 G 4 52° 90% - - 49° 58.6° 48.4° - - -
2/26 8:20pm 82 1 G 1 52° 89% - - 49° 58.6° 48.4° - - -
2/26 8:10pm 140 2 G 3 52° 89% - - 49° 58.6° 48.4° - - -
2/26 8:00pm 159 3 G 5 52° 90% - - 49° 58.6° 48.4° - - -
2/26 7:50pm 164 2 G 5 52° 89% - - 49° 58.6° 48.4° - - -
2/26 7:40pm 188 2 G 4 52° 88% - - 49° 58.6° 48.4° - - -
2/26 7:30pm 200 2 G 4 52° 89% - - 49° 58.6° 48.4° - - -
2/26 7:20pm 202 2 G 5 52° 89% - - 49° 58.6° 48.4° - - -
2/26 7:10pm 195 2 G 5 52° 88% - - 49° 58.6° 48.4° - - -
2/26 7:00pm 195 2 G 4 53° 87% - - 49° 58.6° 48.4° - - -
2/26 6:50pm 181 4 G 6 53° 87% - - 49° 58.6° 48.4° - - -
2/26 6:40pm 175 3 G 5 53° 87% - - 49° 58.6° 48.4° - - -
2/26 6:30pm 178 3 G 6 53° 87% - - 49° 58.6° 48.4° - - -
2/26 6:20pm 186 4 G 7 53° 85% - - 49° 58.6° 48.4° - - -
2/26 6:10pm 188 4 G 8 53° 86% - - 49° 58.6° 48.4° - - -
2/26 6:00pm 195 5 G 10 53° 87% - - 49° 58.6° 48.4° - - -
2/26 5:50pm 202 4 G 9 54° 85% - - 49° 58.6° 48.4° - - -
2/26 5:40pm 205 4 G 9 54° 82% - - 48° 58.6° 48.4° - - -
2/26 5:30pm 202 4 G 8 54° 82% - - 49° 58.6° 48.4° - - -
2/26 5:20pm 202 5 G 10 54° 82% - - 49° 58.6° 48.4° - - -
2/26 5:10pm 207 4 G 10 54° 78% - - 47° 58.6° 48.4° - - -
2/26 5:00pm 203 5 G 10 54° 77% - - 47° 58.6° 48.4° - - -